sensor_id;sensor_type;location;lat;lon;timestamp;P1;durP1;ratioP1;P2;durP2;ratioP2
55455;SDS011;63021;52.836;6.376;2022-09-12T00:00:24;1.70;;;1.60;;
55455;SDS011;63021;52.836;6.376;2022-09-12T00:02:51;1.77;;;1.67;;
55455;SDS011;63021;52.836;6.376;2022-09-12T00:05:18;1.27;;;1.27;;
55455;SDS011;63021;52.836;6.376;2022-09-12T00:07:43;2.17;;;1.23;;
55455;SDS011;63021;52.836;6.376;2022-09-12T00:10:09;1.33;;;1.30;;
55455;SDS011;63021;52.836;6.376;2022-09-12T00:12:34;1.40;;;1.30;;
55455;SDS011;63021;52.836;6.376;2022-09-12T00:15:00;1.63;;;1.52;;
55455;SDS011;63021;52.836;6.376;2022-09-12T00:17:25;2.10;;;1.95;;
55455;SDS011;63021;52.836;6.376;2022-09-12T00:19:50;1.48;;;1.38;;
55455;SDS011;63021;52.836;6.376;2022-09-12T00:22:16;1.67;;;1.58;;
55455;SDS011;63021;52.836;6.376;2022-09-12T00:24:41;1.75;;;1.60;;
55455;SDS011;63021;52.836;6.376;2022-09-12T00:27:07;2.35;;;1.48;;
55455;SDS011;63021;52.836;6.376;2022-09-12T00:29:32;2.20;;;1.50;;
55455;SDS011;63021;52.836;6.376;2022-09-12T00:31:58;1.30;;;1.30;;
55455;SDS011;63021;52.836;6.376;2022-09-12T00:34:23;1.30;;;1.30;;
55455;SDS011;63021;52.836;6.376;2022-09-12T00:36:48;1.52;;;1.23;;
55455;SDS011;63021;52.836;6.376;2022-09-12T00:39:14;1.40;;;1.40;;
55455;SDS011;63021;52.836;6.376;2022-09-12T00:41:40;2.42;;;1.80;;
55455;SDS011;63021;52.836;6.376;2022-09-12T00:49:05;1.90;;;1.80;;
55455;SDS011;63021;52.836;6.376;2022-09-12T00:51:36;2.17;;;1.73;;
55455;SDS011;63021;52.836;6.376;2022-09-12T00:54:06;1.73;;;1.60;;
55455;SDS011;63021;52.836;6.376;2022-09-12T00:56:35;2.38;;;1.63;;
55455;SDS011;63021;52.836;6.376;2022-09-12T00:59:16;1.83;;;1.73;;
55455;SDS011;63021;52.836;6.376;2022-09-12T01:01:45;1.90;;;1.60;;
55455;SDS011;63021;52.836;6.376;2022-09-12T01:04:14;1.60;;;1.50;;
55455;SDS011;63021;52.836;6.376;2022-09-12T01:06:42;4.43;;;1.52;;
55455;SDS011;63021;52.836;6.376;2022-09-12T01:09:10;2.13;;;1.30;;
55455;SDS011;63021;52.836;6.376;2022-09-12T01:11:40;1.30;;;1.20;;
55455;SDS011;63021;52.836;6.376;2022-09-12T01:14:10;1.10;;;1.10;;
55455;SDS011;63021;52.836;6.376;2022-09-12T01:16:36;1.80;;;1.10;;
55455;SDS011;63021;52.836;6.376;2022-09-12T01:30:52;1.92;;;1.58;;
55455;SDS011;63021;52.836;6.376;2022-09-12T01:33:31;1.50;;;1.40;;
55455;SDS011;63021;52.836;6.376;2022-09-12T01:38:53;2.00;;;1.90;;
55455;SDS011;63021;52.836;6.376;2022-09-12T01:41:29;2.05;;;1.95;;
55455;SDS011;63021;52.836;6.376;2022-09-12T01:46:53;2.40;;;2.20;;
55455;SDS011;63021;52.836;6.376;2022-09-12T01:54:49;5.82;;;3.88;;
55455;SDS011;63021;52.836;6.376;2022-09-12T01:57:38;4.90;;;4.50;;
55455;SDS011;63021;52.836;6.376;2022-09-12T02:00:09;6.13;;;4.28;;
55455;SDS011;63021;52.836;6.376;2022-09-12T02:03:09;5.68;;;4.53;;
55455;SDS011;63021;52.836;6.376;2022-09-12T02:05:38;6.03;;;5.45;;
55455;SDS011;63021;52.836;6.376;2022-09-12T02:08:08;8.50;;;6.55;;
55455;SDS011;63021;52.836;6.376;2022-09-12T02:14:05;11.73;;;10.10;;
55455;SDS011;63021;52.836;6.376;2022-09-12T02:16:29;13.95;;;11.63;;
55455;SDS011;63021;52.836;6.376;2022-09-12T02:18:59;17.00;;;12.53;;
55455;SDS011;63021;52.836;6.376;2022-09-12T02:21:31;19.98;;;14.38;;
55455;SDS011;63021;52.836;6.376;2022-09-12T02:24:01;16.42;;;14.65;;
55455;SDS011;63021;52.836;6.376;2022-09-12T02:26:33;19.15;;;16.13;;
55455;SDS011;63021;52.836;6.376;2022-09-12T02:29:02;23.87;;;16.73;;
55455;SDS011;63021;52.836;6.376;2022-09-12T02:31:44;20.13;;;16.50;;
55455;SDS011;63021;52.836;6.376;2022-09-12T02:37:24;16.77;;;12.85;;
55455;SDS011;63021;52.836;6.376;2022-09-12T02:39:55;12.77;;;11.27;;
55455;SDS011;63021;52.836;6.376;2022-09-12T02:42:22;13.82;;;10.38;;
55455;SDS011;63021;52.836;6.376;2022-09-12T02:44:48;18.50;;;13.93;;
55455;SDS011;63021;52.836;6.376;2022-09-12T02:47:22;18.08;;;13.60;;
55455;SDS011;63021;52.836;6.376;2022-09-12T02:49:52;18.75;;;14.10;;
55455;SDS011;63021;52.836;6.376;2022-09-12T02:52:19;19.90;;;16.30;;
55455;SDS011;63021;52.836;6.376;2022-09-12T02:54:45;20.90;;;16.77;;
55455;SDS011;63021;52.836;6.376;2022-09-12T02:57:15;21.20;;;16.70;;
55455;SDS011;63021;52.836;6.376;2022-09-12T02:59:42;22.45;;;18.73;;
55455;SDS011;63021;52.836;6.376;2022-09-12T03:02:29;24.92;;;18.90;;
55455;SDS011;63021;52.836;6.376;2022-09-12T03:10:26;24.75;;;19.77;;
55455;SDS011;63021;52.836;6.376;2022-09-12T03:13:07;28.02;;;21.17;;
55455;SDS011;63021;52.836;6.376;2022-09-12T03:27:11;27.98;;;21.50;;
55455;SDS011;63021;52.836;6.376;2022-09-12T03:29:42;29.70;;;21.75;;
55455;SDS011;63021;52.836;6.376;2022-09-12T03:32:14;28.60;;;21.45;;
55455;SDS011;63021;52.836;6.376;2022-09-12T03:34:40;31.08;;;22.20;;
55455;SDS011;63021;52.836;6.376;2022-09-12T03:37:05;33.70;;;22.20;;
55455;SDS011;63021;52.836;6.376;2022-09-12T03:39:30;27.42;;;20.42;;
55455;SDS011;63021;52.836;6.376;2022-09-12T03:41:56;27.63;;;22.52;;
55455;SDS011;63021;52.836;6.376;2022-09-12T03:44:22;26.20;;;20.80;;
55455;SDS011;63021;52.836;6.376;2022-09-12T03:46:48;26.38;;;21.38;;
55455;SDS011;63021;52.836;6.376;2022-09-12T03:49:14;28.00;;;21.08;;
55455;SDS011;63021;52.836;6.376;2022-09-12T03:51:39;25.98;;;21.65;;
55455;SDS011;63021;52.836;6.376;2022-09-12T03:54:05;27.50;;;21.63;;
55455;SDS011;63021;52.836;6.376;2022-09-12T03:56:31;26.45;;;20.33;;
55455;SDS011;63021;52.836;6.376;2022-09-12T03:58:56;27.90;;;20.80;;
55455;SDS011;63021;52.836;6.376;2022-09-12T04:01:22;27.27;;;21.77;;
55455;SDS011;63021;52.836;6.376;2022-09-12T04:03:49;27.17;;;21.50;;
55455;SDS011;63021;52.836;6.376;2022-09-12T04:06:20;26.55;;;20.65;;
55455;SDS011;63021;52.836;6.376;2022-09-12T04:08:47;26.67;;;19.88;;
55455;SDS011;63021;52.836;6.376;2022-09-12T04:11:15;28.80;;;22.25;;
55455;SDS011;63021;52.836;6.376;2022-09-12T04:13:41;31.67;;;21.95;;
55455;SDS011;63021;52.836;6.376;2022-09-12T04:16:09;29.15;;;21.55;;
55455;SDS011;63021;52.836;6.376;2022-09-12T04:18:35;26.13;;;20.92;;
55455;SDS011;63021;52.836;6.376;2022-09-12T04:21:07;26.98;;;20.95;;
55455;SDS011;63021;52.836;6.376;2022-09-12T04:23:34;25.80;;;21.05;;
55455;SDS011;63021;52.836;6.376;2022-09-12T04:26:00;28.25;;;20.83;;
55455;SDS011;63021;52.836;6.376;2022-09-12T04:28:27;29.23;;;22.60;;
55455;SDS011;63021;52.836;6.376;2022-09-12T04:30:54;28.95;;;22.35;;
55455;SDS011;63021;52.836;6.376;2022-09-12T04:33:20;25.52;;;20.33;;
55455;SDS011;63021;52.836;6.376;2022-09-12T04:35:46;26.75;;;20.77;;
55455;SDS011;63021;52.836;6.376;2022-09-12T04:38:12;29.15;;;21.58;;
55455;SDS011;63021;52.836;6.376;2022-09-12T04:40:39;26.83;;;21.38;;
55455;SDS011;63021;52.836;6.376;2022-09-12T04:43:05;28.33;;;20.95;;
55455;SDS011;63021;52.836;6.376;2022-09-12T04:45:31;24.45;;;19.92;;
55455;SDS011;63021;52.836;6.376;2022-09-12T04:47:57;26.13;;;20.85;;
55455;SDS011;63021;52.836;6.376;2022-09-12T04:50:23;32.60;;;23.02;;
55455;SDS011;63021;52.836;6.376;2022-09-12T04:52:49;26.40;;;21.30;;
55455;SDS011;63021;52.836;6.376;2022-09-12T04:55:15;32.55;;;23.63;;
55455;SDS011;63021;52.836;6.376;2022-09-12T04:57:40;26.50;;;21.55;;
55455;SDS011;63021;52.836;6.376;2022-09-12T05:00:07;29.40;;;21.67;;
55455;SDS011;63021;52.836;6.376;2022-09-12T05:02:35;27.50;;;21.90;;
55455;SDS011;63021;52.836;6.376;2022-09-12T05:05:02;26.77;;;21.20;;
55455;SDS011;63021;52.836;6.376;2022-09-12T05:07:28;35.85;;;23.35;;
55455;SDS011;63021;52.836;6.376;2022-09-12T05:09:53;29.83;;;22.48;;
55455;SDS011;63021;52.836;6.376;2022-09-12T05:12:19;30.42;;;22.52;;
55455;SDS011;63021;52.836;6.376;2022-09-12T05:14:44;32.10;;;23.55;;
55455;SDS011;63021;52.836;6.376;2022-09-12T05:17:10;33.20;;;24.30;;
55455;SDS011;63021;52.836;6.376;2022-09-12T05:19:35;30.33;;;22.77;;
55455;SDS011;63021;52.836;6.376;2022-09-12T05:22:01;34.40;;;25.58;;
55455;SDS011;63021;52.836;6.376;2022-09-12T05:24:26;37.30;;;25.17;;
55455;SDS011;63021;52.836;6.376;2022-09-12T05:26:52;34.88;;;24.13;;
55455;SDS011;63021;52.836;6.376;2022-09-12T05:29:17;40.03;;;27.35;;
55455;SDS011;63021;52.836;6.376;2022-09-12T05:31:43;36.17;;;26.35;;
55455;SDS011;63021;52.836;6.376;2022-09-12T05:34:08;34.65;;;26.00;;
55455;SDS011;63021;52.836;6.376;2022-09-12T05:36:34;35.33;;;24.02;;
55455;SDS011;63021;52.836;6.376;2022-09-12T05:39:01;32.83;;;24.33;;
55455;SDS011;63021;52.836;6.376;2022-09-12T05:41:28;29.50;;;24.00;;
55455;SDS011;63021;52.836;6.376;2022-09-12T05:43:57;35.92;;;25.73;;
55455;SDS011;63021;52.836;6.376;2022-09-12T05:46:25;35.35;;;25.23;;
55455;SDS011;63021;52.836;6.376;2022-09-12T05:48:52;29.95;;;23.52;;
55455;SDS011;63021;52.836;6.376;2022-09-12T05:51:26;35.03;;;24.38;;
55455;SDS011;63021;52.836;6.376;2022-09-12T05:53:53;34.05;;;25.63;;
55455;SDS011;63021;52.836;6.376;2022-09-12T05:56:21;33.75;;;24.70;;
55455;SDS011;63021;52.836;6.376;2022-09-12T05:58:52;37.20;;;27.00;;
55455;SDS011;63021;52.836;6.376;2022-09-12T06:01:26;37.50;;;25.90;;
55455;SDS011;63021;52.836;6.376;2022-09-12T06:03:53;39.45;;;27.92;;
55455;SDS011;63021;52.836;6.376;2022-09-12T06:06:20;38.97;;;27.23;;
55455;SDS011;63021;52.836;6.376;2022-09-12T06:08:48;36.53;;;26.50;;
55455;SDS011;63021;52.836;6.376;2022-09-12T06:11:19;38.53;;;27.45;;
55455;SDS011;63021;52.836;6.376;2022-09-12T06:13:47;37.92;;;26.58;;
55455;SDS011;63021;52.836;6.376;2022-09-12T06:16:14;38.75;;;26.88;;
55455;SDS011;63021;52.836;6.376;2022-09-12T06:18:48;37.53;;;27.10;;
55455;SDS011;63021;52.836;6.376;2022-09-12T06:21:16;40.42;;;28.63;;
55455;SDS011;63021;52.836;6.376;2022-09-12T06:23:42;36.70;;;26.02;;
55455;SDS011;63021;52.836;6.376;2022-09-12T06:26:10;41.35;;;27.45;;
55455;SDS011;63021;52.836;6.376;2022-09-12T06:28:37;45.65;;;30.08;;
55455;SDS011;63021;52.836;6.376;2022-09-12T06:31:08;45.60;;;30.73;;
55455;SDS011;63021;52.836;6.376;2022-09-12T06:33:35;43.25;;;28.38;;
55455;SDS011;63021;52.836;6.376;2022-09-12T06:36:06;43.78;;;28.85;;
55455;SDS011;63021;52.836;6.376;2022-09-12T06:38:34;39.85;;;28.40;;
55455;SDS011;63021;52.836;6.376;2022-09-12T06:40:59;44.80;;;31.25;;
55455;SDS011;63021;52.836;6.376;2022-09-12T06:43:28;43.88;;;29.83;;
55455;SDS011;63021;52.836;6.376;2022-09-12T06:45:55;51.30;;;31.25;;
55455;SDS011;63021;52.836;6.376;2022-09-12T06:48:20;50.90;;;34.05;;
55455;SDS011;63021;52.836;6.376;2022-09-12T06:50:59;54.58;;;33.47;;
55455;SDS011;63021;52.836;6.376;2022-09-12T06:53:26;55.75;;;34.80;;
55455;SDS011;63021;52.836;6.376;2022-09-12T06:55:59;48.70;;;32.28;;
55455;SDS011;63021;52.836;6.376;2022-09-12T06:58:27;48.40;;;34.22;;
55455;SDS011;63021;52.836;6.376;2022-09-12T07:01:00;51.05;;;32.42;;
55455;SDS011;63021;52.836;6.376;2022-09-12T07:03:27;47.70;;;33.75;;
55455;SDS011;63021;52.836;6.376;2022-09-12T07:05:53;47.70;;;32.03;;
55455;SDS011;63021;52.836;6.376;2022-09-12T07:08:18;57.08;;;33.00;;
55455;SDS011;63021;52.836;6.376;2022-09-12T07:10:44;51.20;;;33.72;;
55455;SDS011;63021;52.836;6.376;2022-09-12T07:13:09;53.75;;;33.88;;
55455;SDS011;63021;52.836;6.376;2022-09-12T07:15:34;53.50;;;34.25;;
55455;SDS011;63021;52.836;6.376;2022-09-12T07:18:00;53.53;;;33.58;;
55455;SDS011;63021;52.836;6.376;2022-09-12T07:20:26;54.67;;;33.92;;
55455;SDS011;63021;52.836;6.376;2022-09-12T07:22:51;52.15;;;32.85;;
55455;SDS011;63021;52.836;6.376;2022-09-12T07:25:17;52.97;;;33.50;;
55455;SDS011;63021;52.836;6.376;2022-09-12T07:27:42;54.00;;;34.45;;
55455;SDS011;63021;52.836;6.376;2022-09-12T07:30:08;58.55;;;34.95;;
55455;SDS011;63021;52.836;6.376;2022-09-12T07:32:33;57.08;;;35.65;;
55455;SDS011;63021;52.836;6.376;2022-09-12T07:34:59;54.28;;;34.03;;
55455;SDS011;63021;52.836;6.376;2022-09-12T07:37:24;56.30;;;35.08;;
55455;SDS011;63021;52.836;6.376;2022-09-12T07:39:49;55.80;;;34.63;;
55455;SDS011;63021;52.836;6.376;2022-09-12T07:42:15;54.53;;;34.20;;
55455;SDS011;63021;52.836;6.376;2022-09-12T07:44:41;52.53;;;33.17;;
55455;SDS011;63021;52.836;6.376;2022-09-12T07:47:08;57.85;;;34.90;;
55455;SDS011;63021;52.836;6.376;2022-09-12T07:49:33;57.03;;;35.45;;
55455;SDS011;63021;52.836;6.376;2022-09-12T07:52:00;55.03;;;35.97;;
55455;SDS011;63021;52.836;6.376;2022-09-12T07:54:25;54.70;;;33.85;;
55455;SDS011;63021;52.836;6.376;2022-09-12T07:56:50;55.67;;;36.00;;
55455;SDS011;63021;52.836;6.376;2022-09-12T07:59:16;56.85;;;35.83;;
55455;SDS011;63021;52.836;6.376;2022-09-12T08:01:41;52.22;;;35.10;;
55455;SDS011;63021;52.836;6.376;2022-09-12T08:04:07;55.75;;;35.45;;
55455;SDS011;63021;52.836;6.376;2022-09-12T08:06:33;51.85;;;33.65;;
55455;SDS011;63021;52.836;6.376;2022-09-12T08:09:00;55.67;;;34.85;;
55455;SDS011;63021;52.836;6.376;2022-09-12T08:11:26;55.22;;;35.20;;
55455;SDS011;63021;52.836;6.376;2022-09-12T08:13:53;56.75;;;35.08;;
55455;SDS011;63021;52.836;6.376;2022-09-12T08:16:21;58.05;;;35.08;;
55455;SDS011;63021;52.836;6.376;2022-09-12T08:18:48;59.78;;;36.00;;
55455;SDS011;63021;52.836;6.376;2022-09-12T08:21:15;54.75;;;34.28;;
55455;SDS011;63021;52.836;6.376;2022-09-12T08:23:45;54.95;;;34.30;;
55455;SDS011;63021;52.836;6.376;2022-09-12T08:26:11;63.03;;;36.95;;
55455;SDS011;63021;52.836;6.376;2022-09-12T08:28:38;60.75;;;38.15;;
55455;SDS011;63021;52.836;6.376;2022-09-12T08:31:08;63.72;;;37.22;;
55455;SDS011;63021;52.836;6.376;2022-09-12T08:33:35;60.50;;;36.47;;
55455;SDS011;63021;52.836;6.376;2022-09-12T08:36:05;54.67;;;36.30;;
55455;SDS011;63021;52.836;6.376;2022-09-12T08:38:31;59.10;;;36.95;;
55455;SDS011;63021;52.836;6.376;2022-09-12T08:41:21;52.35;;;33.70;;
55455;SDS011;63021;52.836;6.376;2022-09-12T08:47:18;55.90;;;35.50;;
55455;SDS011;63021;52.836;6.376;2022-09-12T08:49:52;58.30;;;33.97;;
55455;SDS011;63021;52.836;6.376;2022-09-12T08:52:28;54.92;;;33.65;;
55455;SDS011;63021;52.836;6.376;2022-09-12T08:54:57;53.97;;;33.25;;
55455;SDS011;63021;52.836;6.376;2022-09-12T08:57:26;53.78;;;33.10;;
55455;SDS011;63021;52.836;6.376;2022-09-12T08:59:52;55.53;;;35.00;;
55455;SDS011;63021;52.836;6.376;2022-09-12T09:16:30;50.70;;;31.75;;
55455;SDS011;63021;52.836;6.376;2022-09-12T09:19:00;53.03;;;32.78;;
55455;SDS011;63021;52.836;6.376;2022-09-12T09:21:35;58.25;;;32.42;;
55455;SDS011;63021;52.836;6.376;2022-09-12T09:24:07;57.55;;;33.67;;
55455;SDS011;63021;52.836;6.376;2022-09-12T09:26:43;55.50;;;32.28;;
55455;SDS011;63021;52.836;6.376;2022-09-12T09:29:17;53.15;;;32.45;;
55455;SDS011;63021;52.836;6.376;2022-09-12T09:31:48;57.80;;;32.30;;
55455;SDS011;63021;52.836;6.376;2022-09-12T09:34:18;51.47;;;31.17;;
55455;SDS011;63021;52.836;6.376;2022-09-12T09:42:49;41.28;;;26.80;;
55455;SDS011;63021;52.836;6.376;2022-09-12T09:45:21;41.10;;;25.98;;
55455;SDS011;63021;52.836;6.376;2022-09-12T09:47:59;47.75;;;27.63;;
55455;SDS011;63021;52.836;6.376;2022-09-12T09:50:35;38.40;;;25.48;;
55455;SDS011;63021;52.836;6.376;2022-09-12T09:53:01;47.47;;;27.38;;
55455;SDS011;63021;52.836;6.376;2022-09-12T09:55:29;43.00;;;26.90;;
55455;SDS011;63021;52.836;6.376;2022-09-12T09:58:02;42.28;;;26.50;;
55455;SDS011;63021;52.836;6.376;2022-09-12T10:05:52;41.08;;;25.30;;
55455;SDS011;63021;52.836;6.376;2022-09-12T10:08:30;37.83;;;24.25;;
55455;SDS011;63021;52.836;6.376;2022-09-12T10:11:02;40.17;;;24.63;;
55455;SDS011;63021;52.836;6.376;2022-09-12T10:16:29;33.10;;;23.02;;
55455;SDS011;63021;52.836;6.376;2022-09-12T10:18:58;38.88;;;24.65;;
55455;SDS011;63021;52.836;6.376;2022-09-12T10:21:27;38.88;;;23.30;;
55455;SDS011;63021;52.836;6.376;2022-09-12T10:29:02;31.80;;;20.80;;
55455;SDS011;63021;52.836;6.376;2022-09-12T10:31:35;34.42;;;20.23;;
55455;SDS011;63021;52.836;6.376;2022-09-12T10:37:02;29.15;;;21.08;;
55455;SDS011;63021;52.836;6.376;2022-09-12T10:39:30;26.00;;;19.02;;
55455;SDS011;63021;52.836;6.376;2022-09-12T10:41:57;26.05;;;18.00;;
55455;SDS011;63021;52.836;6.376;2022-09-12T10:44:24;31.38;;;20.77;;
55455;SDS011;63021;52.836;6.376;2022-09-12T10:46:51;26.42;;;18.73;;
55455;SDS011;63021;52.836;6.376;2022-09-12T10:49:19;29.63;;;18.25;;
55455;SDS011;63021;52.836;6.376;2022-09-12T10:51:50;24.50;;;17.55;;
55455;SDS011;63021;52.836;6.376;2022-09-12T10:54:18;25.88;;;16.48;;
55455;SDS011;63021;52.836;6.376;2022-09-12T10:56:56;21.70;;;15.02;;
55455;SDS011;63021;52.836;6.376;2022-09-12T11:10:15;16.70;;;12.73;;
55455;SDS011;63021;52.836;6.376;2022-09-12T11:12:53;17.38;;;12.27;;
55455;SDS011;63021;52.836;6.376;2022-09-12T11:15:28;20.73;;;13.80;;
55455;SDS011;63021;52.836;6.376;2022-09-12T11:26:23;19.20;;;13.55;;
55455;SDS011;63021;52.836;6.376;2022-09-12T11:31:47;23.88;;;15.27;;
55455;SDS011;63021;52.836;6.376;2022-09-12T11:34:16;22.67;;;15.05;;
55455;SDS011;63021;52.836;6.376;2022-09-12T11:39:46;21.92;;;14.30;;
55455;SDS011;63021;52.836;6.376;2022-09-12T11:42:18;16.58;;;12.52;;
55455;SDS011;63021;52.836;6.376;2022-09-12T11:44:55;19.07;;;13.17;;
55455;SDS011;63021;52.836;6.376;2022-09-12T11:47:28;15.95;;;12.48;;
55455;SDS011;63021;52.836;6.376;2022-09-12T11:49:59;16.88;;;11.90;;
55455;SDS011;63021;52.836;6.376;2022-09-12T11:52:32;18.67;;;14.23;;
55455;SDS011;63021;52.836;6.376;2022-09-12T11:57:33;17.85;;;12.05;;
55455;SDS011;63021;52.836;6.376;2022-09-12T12:08:21;17.02;;;10.20;;
55455;SDS011;63021;52.836;6.376;2022-09-12T12:10:50;14.05;;;9.93;;
55455;SDS011;63021;52.836;6.376;2022-09-12T12:19:00;14.07;;;11.68;;
55455;SDS011;63021;52.836;6.376;2022-09-12T12:29:08;11.00;;;7.85;;
55455;SDS011;63021;52.836;6.376;2022-09-12T12:34:32;10.30;;;8.98;;
55455;SDS011;63021;52.836;6.376;2022-09-12T12:42:08;12.13;;;9.32;;
55455;SDS011;63021;52.836;6.376;2022-09-12T12:49:56;13.07;;;9.00;;
55455;SDS011;63021;52.836;6.376;2022-09-12T12:52:24;14.80;;;10.73;;
55455;SDS011;63021;52.836;6.376;2022-09-12T12:54:55;15.90;;;10.95;;
55455;SDS011;63021;52.836;6.376;2022-09-12T13:05:23;14.18;;;11.60;;
55455;SDS011;63021;52.836;6.376;2022-09-12T13:07:55;15.25;;;11.35;;
55455;SDS011;63021;52.836;6.376;2022-09-12T13:10:24;15.90;;;11.88;;
55455;SDS011;63021;52.836;6.376;2022-09-12T13:12:53;11.07;;;9.45;;
55455;SDS011;63021;52.836;6.376;2022-09-12T13:15:45;14.10;;;10.13;;
55455;SDS011;63021;52.836;6.376;2022-09-12T13:18:15;15.70;;;12.40;;
55455;SDS011;63021;52.836;6.376;2022-09-12T13:20:54;12.98;;;10.77;;
55455;SDS011;63021;52.836;6.376;2022-09-12T13:23:26;13.63;;;10.52;;
55455;SDS011;63021;52.836;6.376;2022-09-12T13:25:54;13.57;;;10.63;;
55455;SDS011;63021;52.836;6.376;2022-09-12T13:28:21;13.85;;;10.15;;
55455;SDS011;63021;52.836;6.376;2022-09-12T13:30:58;11.23;;;9.05;;
55455;SDS011;63021;52.836;6.376;2022-09-12T13:33:36;12.30;;;10.52;;
55455;SDS011;63021;52.836;6.376;2022-09-12T13:44:09;12.82;;;9.38;;
55455;SDS011;63021;52.836;6.376;2022-09-12T13:46:39;11.07;;;9.35;;
55455;SDS011;63021;52.836;6.376;2022-09-12T13:54:29;13.35;;;8.68;;
55455;SDS011;63021;52.836;6.376;2022-09-12T13:56:57;13.00;;;8.93;;
55455;SDS011;63021;52.836;6.376;2022-09-12T13:59:23;9.02;;;8.00;;
55455;SDS011;63021;52.836;6.376;2022-09-12T14:01:49;9.93;;;6.85;;
55455;SDS011;63021;52.836;6.376;2022-09-12T14:04:18;12.70;;;8.32;;
55455;SDS011;63021;52.836;6.376;2022-09-12T14:07:28;9.77;;;7.43;;
55455;SDS011;63021;52.836;6.376;2022-09-12T14:09:56;8.25;;;5.20;;
55455;SDS011;63021;52.836;6.376;2022-09-12T14:12:24;6.20;;;5.60;;
55455;SDS011;63021;52.836;6.376;2022-09-12T14:14:54;6.43;;;5.60;;
55455;SDS011;63021;52.836;6.376;2022-09-12T14:17:26;8.75;;;5.97;;
55455;SDS011;63021;52.836;6.376;2022-09-12T14:19:55;6.22;;;5.60;;
55455;SDS011;63021;52.836;6.376;2022-09-12T14:22:27;8.15;;;5.22;;
55455;SDS011;63021;52.836;6.376;2022-09-12T14:24:54;8.57;;;4.78;;
55455;SDS011;63021;52.836;6.376;2022-09-12T14:27:25;6.20;;;5.57;;
55455;SDS011;63021;52.836;6.376;2022-09-12T14:30:01;6.90;;;5.57;;
55455;SDS011;63021;52.836;6.376;2022-09-12T14:32:31;8.15;;;4.63;;
55455;SDS011;63021;52.836;6.376;2022-09-12T14:35:16;6.45;;;4.63;;
55455;SDS011;63021;52.836;6.376;2022-09-12T14:37:45;5.78;;;4.82;;
55455;SDS011;63021;52.836;6.376;2022-09-12T14:40:22;4.50;;;4.07;;
55455;SDS011;63021;52.836;6.376;2022-09-12T14:42:48;4.13;;;3.72;;
55455;SDS011;63021;52.836;6.376;2022-09-12T14:45:23;7.03;;;3.95;;
55455;SDS011;63021;52.836;6.376;2022-09-12T14:47:52;4.20;;;3.80;;
55455;SDS011;63021;52.836;6.376;2022-09-12T14:50:21;5.22;;;4.10;;
55455;SDS011;63021;52.836;6.376;2022-09-12T14:53:03;5.13;;;3.45;;
55455;SDS011;63021;52.836;6.376;2022-09-12T14:58:35;4.28;;;3.72;;
55455;SDS011;63021;52.836;6.376;2022-09-12T15:03:34;6.57;;;3.58;;
55455;SDS011;63021;52.836;6.376;2022-09-12T15:06:21;4.63;;;4.07;;
55455;SDS011;63021;52.836;6.376;2022-09-12T15:08:47;3.50;;;3.20;;
55455;SDS011;63021;52.836;6.376;2022-09-12T15:11:12;3.42;;;3.10;;
55455;SDS011;63021;52.836;6.376;2022-09-12T15:13:39;11.25;;;5.57;;
55455;SDS011;63021;52.836;6.376;2022-09-12T15:16:07;4.20;;;3.67;;
55455;SDS011;63021;52.836;6.376;2022-09-12T15:18:34;3.75;;;3.30;;
55455;SDS011;63021;52.836;6.376;2022-09-12T15:21:01;3.35;;;3.00;;
55455;SDS011;63021;52.836;6.376;2022-09-12T15:25:57;3.47;;;2.90;;
55455;SDS011;63021;52.836;6.376;2022-09-12T15:28:23;4.95;;;3.25;;
55455;SDS011;63021;52.836;6.376;2022-09-12T15:30:51;3.72;;;3.03;;
55455;SDS011;63021;52.836;6.376;2022-09-12T15:33:18;3.42;;;3.00;;
55455;SDS011;63021;52.836;6.376;2022-09-12T15:35:46;4.40;;;3.50;;
55455;SDS011;63021;52.836;6.376;2022-09-12T15:38:12;3.70;;;3.30;;
55455;SDS011;63021;52.836;6.376;2022-09-12T15:40:38;3.30;;;3.00;;
55455;SDS011;63021;52.836;6.376;2022-09-12T15:43:03;3.42;;;3.13;;
55455;SDS011;63021;52.836;6.376;2022-09-12T15:45:30;3.60;;;3.05;;
55455;SDS011;63021;52.836;6.376;2022-09-12T15:47:58;7.65;;;2.92;;
55455;SDS011;63021;52.836;6.376;2022-09-12T15:50:25;3.45;;;3.10;;
55455;SDS011;63021;52.836;6.376;2022-09-12T15:52:52;4.47;;;3.15;;
55455;SDS011;63021;52.836;6.376;2022-09-12T15:55:22;3.33;;;2.97;;
55455;SDS011;63021;52.836;6.376;2022-09-12T15:57:53;3.70;;;3.00;;
55455;SDS011;63021;52.836;6.376;2022-09-12T16:00:19;4.18;;;3.42;;
55455;SDS011;63021;52.836;6.376;2022-09-12T16:02:45;2.97;;;2.78;;
55455;SDS011;63021;52.836;6.376;2022-09-12T16:05:14;5.03;;;3.00;;
55455;SDS011;63021;52.836;6.376;2022-09-12T16:07:42;3.63;;;2.85;;
55455;SDS011;63021;52.836;6.376;2022-09-12T16:10:15;4.35;;;3.05;;
55455;SDS011;63021;52.836;6.376;2022-09-12T16:12:42;3.72;;;3.10;;
55455;SDS011;63021;52.836;6.376;2022-09-12T16:15:10;3.72;;;2.90;;
55455;SDS011;63021;52.836;6.376;2022-09-12T16:17:38;6.30;;;2.80;;
55455;SDS011;63021;52.836;6.376;2022-09-12T16:20:03;4.38;;;2.72;;
55455;SDS011;63021;52.836;6.376;2022-09-12T16:22:29;3.45;;;3.00;;
55455;SDS011;63021;52.836;6.376;2022-09-12T16:24:54;3.15;;;2.85;;
55455;SDS011;63021;52.836;6.376;2022-09-12T16:27:20;3.80;;;2.97;;
55455;SDS011;63021;52.836;6.376;2022-09-12T16:29:45;2.88;;;2.60;;
55455;SDS011;63021;52.836;6.376;2022-09-12T16:32:11;4.15;;;2.92;;
55455;SDS011;63021;52.836;6.376;2022-09-12T16:34:36;4.05;;;3.33;;
55455;SDS011;63021;52.836;6.376;2022-09-12T16:37:01;4.57;;;3.58;;
55455;SDS011;63021;52.836;6.376;2022-09-12T16:39:27;6.25;;;3.42;;
55455;SDS011;63021;52.836;6.376;2022-09-12T16:41:52;3.63;;;2.67;;
55455;SDS011;63021;52.836;6.376;2022-09-12T16:44:18;5.65;;;3.38;;
55455;SDS011;63021;52.836;6.376;2022-09-12T16:46:43;4.88;;;3.20;;
55455;SDS011;63021;52.836;6.376;2022-09-12T16:49:10;4.47;;;3.58;;
55455;SDS011;63021;52.836;6.376;2022-09-12T16:51:35;5.90;;;4.05;;
55455;SDS011;63021;52.836;6.376;2022-09-12T16:54:01;5.40;;;3.03;;
55455;SDS011;63021;52.836;6.376;2022-09-12T16:56:27;3.38;;;3.08;;
55455;SDS011;63021;52.836;6.376;2022-09-12T16:58:52;5.95;;;3.97;;
55455;SDS011;63021;52.836;6.376;2022-09-12T17:01:19;3.70;;;3.20;;
55455;SDS011;63021;52.836;6.376;2022-09-12T17:03:55;3.20;;;2.90;;
55455;SDS011;63021;52.836;6.376;2022-09-12T17:08:49;4.75;;;2.92;;
55455;SDS011;63021;52.836;6.376;2022-09-12T17:11:17;5.57;;;3.28;;
55455;SDS011;63021;52.836;6.376;2022-09-12T17:13:47;4.03;;;3.63;;
55455;SDS011;63021;52.836;6.376;2022-09-12T17:16:15;5.00;;;3.53;;
55455;SDS011;63021;52.836;6.376;2022-09-12T17:18:41;3.45;;;2.85;;
55455;SDS011;63021;52.836;6.376;2022-09-12T17:21:07;4.80;;;3.40;;
55455;SDS011;63021;52.836;6.376;2022-09-12T17:23:34;3.20;;;2.92;;
55455;SDS011;63021;52.836;6.376;2022-09-12T17:25:59;3.50;;;2.97;;
55455;SDS011;63021;52.836;6.376;2022-09-12T17:28:25;6.97;;;3.03;;
55455;SDS011;63021;52.836;6.376;2022-09-12T17:30:58;3.85;;;3.55;;
55455;SDS011;63021;52.836;6.376;2022-09-12T17:33:25;3.53;;;3.22;;
55455;SDS011;63021;52.836;6.376;2022-09-12T17:35:51;3.30;;;3.00;;
55455;SDS011;63021;52.836;6.376;2022-09-12T17:38:17;3.88;;;3.50;;
55455;SDS011;63021;52.836;6.376;2022-09-12T17:40:43;3.72;;;3.42;;
55455;SDS011;63021;52.836;6.376;2022-09-12T17:43:12;7.30;;;3.60;;
55455;SDS011;63021;52.836;6.376;2022-09-12T17:45:39;4.68;;;3.60;;